Terminal Aerodrome Forecast
Issued by NWS Wilmington, OH

Current Version | Previous Version | Graphics & Text | Print | Product List | Glossary On
Versions: 1 2 3 4 5 6 7 8 9 10 11 12 13 14 15 16 17 18 19 20 21
000
FTUS41 KILN 171736
TAFILN
TAF
KILN 171736Z 1718/1818 15009KT P6SM SCT200
     FM180300 17010G18KT P6SM VCSH OVC080
     FM180500 19012G20KT P6SM -SHRA SCT035 OVC080
     FM180700 19014G23KT 5SM -SHRA BKN035 OVC080 WS020/21050KT
     FM180900 20016G29KT P6SM -SHRA OVC028
     FM181200 21016G30KT P6SM VCSH OVC015=

USA.gov is the U.S. government's official web portal to all federal, state and local government web resources and services.